sensor_id;sensor_type;location;lat;lon;timestamp;P1;durP1;ratioP1;P2;durP2;ratioP2
6300;SDS011;3183;51.010;6.898;2023-04-25T00:00:52;23.37;;;4.70;;
6300;SDS011;3183;51.010;6.898;2023-04-25T00:03:20;11.70;;;5.07;;
6300;SDS011;3183;51.010;6.898;2023-04-25T00:05:50;17.87;;;4.77;;
6300;SDS011;3183;51.010;6.898;2023-04-25T00:08:17;9.40;;;4.80;;
6300;SDS011;3183;51.010;6.898;2023-04-25T00:10:44;11.15;;;4.95;;
6300;SDS011;3183;51.010;6.898;2023-04-25T00:13:11;21.80;;;5.63;;
6300;SDS011;3183;51.010;6.898;2023-04-25T00:15:39;22.07;;;5.70;;
6300;SDS011;3183;51.010;6.898;2023-04-25T00:18:07;18.83;;;5.63;;
6300;SDS011;3183;51.010;6.898;2023-04-25T00:20:36;15.15;;;5.95;;
6300;SDS011;3183;51.010;6.898;2023-04-25T00:23:05;20.00;;;5.63;;
6300;SDS011;3183;51.010;6.898;2023-04-25T00:25:32;14.23;;;4.77;;
6300;SDS011;3183;51.010;6.898;2023-04-25T00:27:59;15.13;;;5.70;;
6300;SDS011;3183;51.010;6.898;2023-04-25T00:30:26;20.17;;;6.27;;
6300;SDS011;3183;51.010;6.898;2023-04-25T00:32:53;11.10;;;5.10;;
6300;SDS011;3183;51.010;6.898;2023-04-25T00:35:21;18.00;;;5.97;;
6300;SDS011;3183;51.010;6.898;2023-04-25T00:37:49;17.90;;;6.03;;
6300;SDS011;3183;51.010;6.898;2023-04-25T00:40:16;18.27;;;5.83;;
6300;SDS011;3183;51.010;6.898;2023-04-25T00:42:43;20.23;;;7.67;;
6300;SDS011;3183;51.010;6.898;2023-04-25T00:45:12;30.03;;;7.00;;
6300;SDS011;3183;51.010;6.898;2023-04-25T00:47:40;21.83;;;6.70;;
6300;SDS011;3183;51.010;6.898;2023-04-25T00:50:07;22.13;;;6.30;;
6300;SDS011;3183;51.010;6.898;2023-04-25T00:52:35;16.10;;;5.57;;
6300;SDS011;3183;51.010;6.898;2023-04-25T00:55:04;19.80;;;7.23;;
6300;SDS011;3183;51.010;6.898;2023-04-25T00:57:31;19.63;;;7.40;;
6300;SDS011;3183;51.010;6.898;2023-04-25T00:59:59;14.83;;;6.20;;
6300;SDS011;3183;51.010;6.898;2023-04-25T01:02:26;15.97;;;6.20;;
6300;SDS011;3183;51.010;6.898;2023-04-25T01:04:53;13.60;;;5.33;;
6300;SDS011;3183;51.010;6.898;2023-04-25T01:07:20;18.02;;;4.65;;
6300;SDS011;3183;51.010;6.898;2023-04-25T01:09:47;21.60;;;5.43;;
6300;SDS011;3183;51.010;6.898;2023-04-25T01:12:16;23.43;;;6.07;;
6300;SDS011;3183;51.010;6.898;2023-04-25T01:14:43;11.30;;;5.10;;
6300;SDS011;3183;51.010;6.898;2023-04-25T01:17:10;27.43;;;6.73;;
6300;SDS011;3183;51.010;6.898;2023-04-25T01:19:37;13.80;;;5.83;;
6300;SDS011;3183;51.010;6.898;2023-04-25T01:22:06;19.20;;;5.40;;
6300;SDS011;3183;51.010;6.898;2023-04-25T01:24:35;20.23;;;6.20;;
6300;SDS011;3183;51.010;6.898;2023-04-25T01:27:02;19.53;;;5.97;;
6300;SDS011;3183;51.010;6.898;2023-04-25T01:29:30;13.00;;;6.20;;
6300;SDS011;3183;51.010;6.898;2023-04-25T01:31:57;23.97;;;6.93;;
6300;SDS011;3183;51.010;6.898;2023-04-25T01:34:25;24.13;;;6.83;;
6300;SDS011;3183;51.010;6.898;2023-04-25T01:36:53;22.53;;;6.03;;
6300;SDS011;3183;51.010;6.898;2023-04-25T01:39:21;14.43;;;6.40;;
6300;SDS011;3183;51.010;6.898;2023-04-25T01:41:48;21.57;;;5.17;;
6300;SDS011;3183;51.010;6.898;2023-04-25T01:44:16;18.05;;;5.30;;
6300;SDS011;3183;51.010;6.898;2023-04-25T01:46:43;30.23;;;6.10;;
6300;SDS011;3183;51.010;6.898;2023-04-25T01:49:10;15.90;;;5.60;;
6300;SDS011;3183;51.010;6.898;2023-04-25T01:51:37;23.93;;;5.50;;
6300;SDS011;3183;51.010;6.898;2023-04-25T01:54:04;16.77;;;5.70;;
6300;SDS011;3183;51.010;6.898;2023-04-25T01:56:36;21.27;;;5.30;;
6300;SDS011;3183;51.010;6.898;2023-04-25T01:59:03;11.40;;;4.97;;
6300;SDS011;3183;51.010;6.898;2023-04-25T02:01:30;15.03;;;6.00;;
6300;SDS011;3183;51.010;6.898;2023-04-25T02:03:57;15.27;;;4.73;;
6300;SDS011;3183;51.010;6.898;2023-04-25T02:06:24;17.33;;;5.50;;
6300;SDS011;3183;51.010;6.898;2023-04-25T02:08:52;11.87;;;5.30;;
6300;SDS011;3183;51.010;6.898;2023-04-25T02:11:19;22.20;;;5.50;;
6300;SDS011;3183;51.010;6.898;2023-04-25T02:13:47;14.97;;;5.03;;
6300;SDS011;3183;51.010;6.898;2023-04-25T02:16:14;21.83;;;5.77;;
6300;SDS011;3183;51.010;6.898;2023-04-25T02:18:41;18.43;;;5.33;;
6300;SDS011;3183;51.010;6.898;2023-04-25T02:21:10;13.00;;;4.97;;
6300;SDS011;3183;51.010;6.898;2023-04-25T02:23:37;19.57;;;4.60;;
6300;SDS011;3183;51.010;6.898;2023-04-25T02:26:04;21.83;;;5.90;;
6300;SDS011;3183;51.010;6.898;2023-04-25T02:28:31;17.63;;;5.20;;
6300;SDS011;3183;51.010;6.898;2023-04-25T02:31:00;21.27;;;5.00;;
6300;SDS011;3183;51.010;6.898;2023-04-25T02:33:27;12.20;;;5.10;;
6300;SDS011;3183;51.010;6.898;2023-04-25T02:35:54;20.27;;;5.57;;
6300;SDS011;3183;51.010;6.898;2023-04-25T02:38:21;23.05;;;5.13;;
6300;SDS011;3183;51.010;6.898;2023-04-25T02:40:48;15.10;;;4.70;;
6300;SDS011;3183;51.010;6.898;2023-04-25T02:43:16;15.23;;;4.63;;
6300;SDS011;3183;51.010;6.898;2023-04-25T02:45:43;12.67;;;4.70;;
6300;SDS011;3183;51.010;6.898;2023-04-25T02:48:11;18.67;;;5.40;;
6300;SDS011;3183;51.010;6.898;2023-04-25T02:50:38;9.20;;;4.40;;
6300;SDS011;3183;51.010;6.898;2023-04-25T02:53:05;14.90;;;4.40;;
6300;SDS011;3183;51.010;6.898;2023-04-25T02:55:33;7.73;;;3.57;;
6300;SDS011;3183;51.010;6.898;2023-04-25T02:58:00;15.77;;;3.85;;
6300;SDS011;3183;51.010;6.898;2023-04-25T03:00:27;12.83;;;3.87;;
6300;SDS011;3183;51.010;6.898;2023-04-25T03:02:55;7.83;;;3.10;;
6300;SDS011;3183;51.010;6.898;2023-04-25T03:05:23;7.83;;;3.57;;
6300;SDS011;3183;51.010;6.898;2023-04-25T03:07:50;6.33;;;3.20;;
6300;SDS011;3183;51.010;6.898;2023-04-25T03:10:17;11.40;;;3.60;;
6300;SDS011;3183;51.010;6.898;2023-04-25T03:12:45;17.70;;;3.97;;
6300;SDS011;3183;51.010;6.898;2023-04-25T03:15:12;10.87;;;4.23;;
6300;SDS011;3183;51.010;6.898;2023-04-25T03:17:41;7.67;;;3.10;;
6300;SDS011;3183;51.010;6.898;2023-04-25T03:20:09;7.63;;;3.40;;
6300;SDS011;3183;51.010;6.898;2023-04-25T03:22:38;13.13;;;4.60;;
6300;SDS011;3183;51.010;6.898;2023-04-25T03:25:05;9.50;;;4.18;;
6300;SDS011;3183;51.010;6.898;2023-04-25T03:27:32;8.20;;;4.20;;
6300;SDS011;3183;51.010;6.898;2023-04-25T03:30:00;14.70;;;4.97;;
6300;SDS011;3183;51.010;6.898;2023-04-25T03:32:27;15.03;;;4.57;;
6300;SDS011;3183;51.010;6.898;2023-04-25T03:34:54;14.23;;;4.37;;
6300;SDS011;3183;51.010;6.898;2023-04-25T03:37:22;15.97;;;4.97;;
6300;SDS011;3183;51.010;6.898;2023-04-25T03:39:50;27.10;;;4.47;;
6300;SDS011;3183;51.010;6.898;2023-04-25T03:42:18;11.63;;;4.83;;
6300;SDS011;3183;51.010;6.898;2023-04-25T03:44:47;12.97;;;4.30;;
6300;SDS011;3183;51.010;6.898;2023-04-25T03:47:14;22.83;;;5.17;;
6300;SDS011;3183;51.010;6.898;2023-04-25T03:49:42;20.53;;;6.73;;
6300;SDS011;3183;51.010;6.898;2023-04-25T03:52:09;10.27;;;4.40;;
6300;SDS011;3183;51.010;6.898;2023-04-25T03:54:36;21.80;;;4.93;;
6300;SDS011;3183;51.010;6.898;2023-04-25T03:57:05;15.40;;;5.73;;
6300;SDS011;3183;51.010;6.898;2023-04-25T03:59:32;15.90;;;5.23;;
6300;SDS011;3183;51.010;6.898;2023-04-25T04:01:59;18.27;;;5.37;;
6300;SDS011;3183;51.010;6.898;2023-04-25T04:04:26;12.60;;;5.60;;
6300;SDS011;3183;51.010;6.898;2023-04-25T04:06:53;21.53;;;5.03;;
6300;SDS011;3183;51.010;6.898;2023-04-25T04:09:20;17.00;;;5.77;;
6300;SDS011;3183;51.010;6.898;2023-04-25T04:11:48;16.83;;;4.50;;
6300;SDS011;3183;51.010;6.898;2023-04-25T04:14:16;29.30;;;5.83;;
6300;SDS011;3183;51.010;6.898;2023-04-25T04:16:43;9.90;;;4.83;;
6300;SDS011;3183;51.010;6.898;2023-04-25T04:19:10;11.27;;;5.17;;
6300;SDS011;3183;51.010;6.898;2023-04-25T04:21:37;16.73;;;5.70;;
6300;SDS011;3183;51.010;6.898;2023-04-25T04:24:05;21.43;;;6.73;;
6300;SDS011;3183;51.010;6.898;2023-04-25T04:26:32;24.20;;;6.43;;
6300;SDS011;3183;51.010;6.898;2023-04-25T04:28:59;33.50;;;7.97;;
6300;SDS011;3183;51.010;6.898;2023-04-25T04:31:28;17.20;;;6.50;;
6300;SDS011;3183;51.010;6.898;2023-04-25T04:33:55;12.47;;;5.80;;
6300;SDS011;3183;51.010;6.898;2023-04-25T04:36:23;21.03;;;6.10;;
6300;SDS011;3183;51.010;6.898;2023-04-25T04:38:51;18.87;;;8.13;;
6300;SDS011;3183;51.010;6.898;2023-04-25T04:41:19;14.10;;;6.57;;
6300;SDS011;3183;51.010;6.898;2023-04-25T04:43:46;16.50;;;6.80;;
6300;SDS011;3183;51.010;6.898;2023-04-25T04:46:13;15.43;;;6.37;;
6300;SDS011;3183;51.010;6.898;2023-04-25T04:48:42;17.30;;;5.47;;
6300;SDS011;3183;51.010;6.898;2023-04-25T04:51:10;10.93;;;5.23;;
6300;SDS011;3183;51.010;6.898;2023-04-25T04:53:37;22.30;;;5.20;;
6300;SDS011;3183;51.010;6.898;2023-04-25T04:56:04;23.97;;;6.00;;
6300;SDS011;3183;51.010;6.898;2023-04-25T04:58:32;10.93;;;5.00;;
6300;SDS011;3183;51.010;6.898;2023-04-25T05:01:00;13.20;;;6.37;;
6300;SDS011;3183;51.010;6.898;2023-04-25T05:03:27;13.93;;;5.40;;
6300;SDS011;3183;51.010;6.898;2023-04-25T05:05:56;20.77;;;6.33;;
6300;SDS011;3183;51.010;6.898;2023-04-25T05:08:23;13.67;;;4.90;;
6300;SDS011;3183;51.010;6.898;2023-04-25T05:10:50;14.20;;;4.50;;
6300;SDS011;3183;51.010;6.898;2023-04-25T05:13:17;12.40;;;5.67;;
6300;SDS011;3183;51.010;6.898;2023-04-25T05:15:44;18.17;;;5.40;;
6300;SDS011;3183;51.010;6.898;2023-04-25T05:18:11;11.60;;;4.80;;
6300;SDS011;3183;51.010;6.898;2023-04-25T05:20:39;8.73;;;4.50;;
6300;SDS011;3183;51.010;6.898;2023-04-25T05:23:07;13.77;;;5.10;;
6300;SDS011;3183;51.010;6.898;2023-04-25T05:25:34;23.47;;;5.13;;
6300;SDS011;3183;51.010;6.898;2023-04-25T05:28:01;14.67;;;5.30;;
6300;SDS011;3183;51.010;6.898;2023-04-25T05:30:30;29.40;;;5.28;;
6300;SDS011;3183;51.010;6.898;2023-04-25T05:32:57;15.83;;;5.03;;
6300;SDS011;3183;51.010;6.898;2023-04-25T05:35:24;15.20;;;4.63;;
6300;SDS011;3183;51.010;6.898;2023-04-25T05:37:51;17.02;;;4.90;;
6300;SDS011;3183;51.010;6.898;2023-04-25T05:40:20;11.47;;;4.90;;
6300;SDS011;3183;51.010;6.898;2023-04-25T05:42:47;13.77;;;4.47;;
6300;SDS011;3183;51.010;6.898;2023-04-25T05:45:14;17.33;;;4.10;;
6300;SDS011;3183;51.010;6.898;2023-04-25T05:47:42;14.03;;;4.70;;
6300;SDS011;3183;51.010;6.898;2023-04-25T05:50:09;18.93;;;3.33;;
6300;SDS011;3183;51.010;6.898;2023-04-25T05:52:36;13.10;;;4.70;;
6300;SDS011;3183;51.010;6.898;2023-04-25T05:55:04;18.30;;;4.90;;
6300;SDS011;3183;51.010;6.898;2023-04-25T05:57:33;28.10;;;4.90;;
6300;SDS011;3183;51.010;6.898;2023-04-25T06:00:00;15.83;;;4.67;;
6300;SDS011;3183;51.010;6.898;2023-04-25T06:02:28;21.00;;;5.40;;
6300;SDS011;3183;51.010;6.898;2023-04-25T06:04:55;11.80;;;4.00;;
6300;SDS011;3183;51.010;6.898;2023-04-25T06:07:22;14.87;;;4.20;;
6300;SDS011;3183;51.010;6.898;2023-04-25T06:09:49;16.00;;;4.87;;
6300;SDS011;3183;51.010;6.898;2023-04-25T06:12:17;22.73;;;4.15;;
6300;SDS011;3183;51.010;6.898;2023-04-25T06:14:46;12.93;;;3.20;;
6300;SDS011;3183;51.010;6.898;2023-04-25T06:17:13;9.80;;;3.57;;
6300;SDS011;3183;51.010;6.898;2023-04-25T06:19:40;10.90;;;3.37;;
6300;SDS011;3183;51.010;6.898;2023-04-25T06:22:07;16.67;;;4.17;;
6300;SDS011;3183;51.010;6.898;2023-04-25T06:24:34;12.40;;;4.30;;
6300;SDS011;3183;51.010;6.898;2023-04-25T06:27:01;13.10;;;4.17;;
6300;SDS011;3183;51.010;6.898;2023-04-25T06:29:28;13.87;;;4.67;;
6300;SDS011;3183;51.010;6.898;2023-04-25T06:31:57;9.63;;;3.77;;
6300;SDS011;3183;51.010;6.898;2023-04-25T06:34:24;19.93;;;4.43;;
6300;SDS011;3183;51.010;6.898;2023-04-25T06:36:51;16.67;;;4.37;;
6300;SDS011;3183;51.010;6.898;2023-04-25T06:39:18;10.57;;;3.83;;
6300;SDS011;3183;51.010;6.898;2023-04-25T06:41:48;17.57;;;4.37;;
6300;SDS011;3183;51.010;6.898;2023-04-25T06:44:15;19.00;;;4.70;;
6300;SDS011;3183;51.010;6.898;2023-04-25T06:46:42;12.60;;;3.70;;
6300;SDS011;3183;51.010;6.898;2023-04-25T06:49:10;31.87;;;5.60;;
6300;SDS011;3183;51.010;6.898;2023-04-25T06:51:38;6.77;;;3.40;;
6300;SDS011;3183;51.010;6.898;2023-04-25T06:54:05;19.73;;;4.40;;
6300;SDS011;3183;51.010;6.898;2023-04-25T06:56:32;13.70;;;4.40;;
6300;SDS011;3183;51.010;6.898;2023-04-25T06:58:59;17.37;;;4.60;;
6300;SDS011;3183;51.010;6.898;2023-04-25T07:01:26;17.37;;;4.03;;
6300;SDS011;3183;51.010;6.898;2023-04-25T07:03:53;10.83;;;3.63;;
6300;SDS011;3183;51.010;6.898;2023-04-25T07:06:22;10.80;;;3.03;;
6300;SDS011;3183;51.010;6.898;2023-04-25T07:08:50;15.03;;;3.67;;
6300;SDS011;3183;51.010;6.898;2023-04-25T07:11:17;15.35;;;4.60;;
6300;SDS011;3183;51.010;6.898;2023-04-25T07:13:45;11.73;;;4.07;;
6300;SDS011;3183;51.010;6.898;2023-04-25T07:16:12;9.93;;;3.37;;
6300;SDS011;3183;51.010;6.898;2023-04-25T07:18:39;17.50;;;3.73;;
6300;SDS011;3183;51.010;6.898;2023-04-25T07:21:06;8.70;;;3.60;;
6300;SDS011;3183;51.010;6.898;2023-04-25T07:23:34;13.60;;;3.60;;
6300;SDS011;3183;51.010;6.898;2023-04-25T07:26:02;14.30;;;3.50;;
6300;SDS011;3183;51.010;6.898;2023-04-25T07:28:29;11.10;;;3.67;;
6300;SDS011;3183;51.010;6.898;2023-04-25T07:30:56;10.93;;;3.43;;
6300;SDS011;3183;51.010;6.898;2023-04-25T07:33:23;13.80;;;3.65;;
6300;SDS011;3183;51.010;6.898;2023-04-25T07:35:51;9.40;;;3.38;;
6300;SDS011;3183;51.010;6.898;2023-04-25T07:38:18;20.13;;;4.00;;
6300;SDS011;3183;51.010;6.898;2023-04-25T07:40:47;12.63;;;3.70;;
6300;SDS011;3183;51.010;6.898;2023-04-25T07:43:14;23.17;;;4.70;;
6300;SDS011;3183;51.010;6.898;2023-04-25T07:45:42;11.20;;;3.43;;
6300;SDS011;3183;51.010;6.898;2023-04-25T07:48:09;12.67;;;3.33;;
6300;SDS011;3183;51.010;6.898;2023-04-25T07:50:36;12.67;;;3.93;;
6300;SDS011;3183;51.010;6.898;2023-04-25T07:53:03;20.43;;;3.10;;
6300;SDS011;3183;51.010;6.898;2023-04-25T07:55:31;22.80;;;4.30;;
6300;SDS011;3183;51.010;6.898;2023-04-25T07:57:59;12.00;;;2.80;;
6300;SDS011;3183;51.010;6.898;2023-04-25T08:00:27;14.63;;;2.70;;
6300;SDS011;3183;51.010;6.898;2023-04-25T08:02:54;8.20;;;2.87;;
6300;SDS011;3183;51.010;6.898;2023-04-25T08:05:21;11.93;;;4.17;;
6300;SDS011;3183;51.010;6.898;2023-04-25T08:07:48;13.90;;;3.70;;
6300;SDS011;3183;51.010;6.898;2023-04-25T08:10:15;19.33;;;3.53;;
6300;SDS011;3183;51.010;6.898;2023-04-25T08:12:42;9.53;;;2.63;;
6300;SDS011;3183;51.010;6.898;2023-04-25T08:15:11;15.10;;;2.70;;
6300;SDS011;3183;51.010;6.898;2023-04-25T08:17:39;13.60;;;3.50;;
6300;SDS011;3183;51.010;6.898;2023-04-25T08:20:06;9.80;;;2.67;;
6300;SDS011;3183;51.010;6.898;2023-04-25T08:22:35;10.57;;;2.70;;
6300;SDS011;3183;51.010;6.898;2023-04-25T08:25:02;16.50;;;3.47;;
6300;SDS011;3183;51.010;6.898;2023-04-25T08:27:29;8.00;;;2.70;;
6300;SDS011;3183;51.010;6.898;2023-04-25T08:29:56;9.23;;;2.90;;
6300;SDS011;3183;51.010;6.898;2023-04-25T08:32:25;11.97;;;3.10;;
6300;SDS011;3183;51.010;6.898;2023-04-25T08:34:52;9.60;;;3.43;;
6300;SDS011;3183;51.010;6.898;2023-04-25T08:37:20;14.13;;;2.90;;
6300;SDS011;3183;51.010;6.898;2023-04-25T08:39:47;13.68;;;3.22;;
6300;SDS011;3183;51.010;6.898;2023-04-25T08:42:17;12.37;;;3.73;;
6300;SDS011;3183;51.010;6.898;2023-04-25T08:44:44;15.23;;;3.70;;
6300;SDS011;3183;51.010;6.898;2023-04-25T08:47:12;17.70;;;4.97;;
6300;SDS011;3183;51.010;6.898;2023-04-25T08:49:40;13.87;;;2.80;;
6300;SDS011;3183;51.010;6.898;2023-04-25T08:52:12;14.63;;;2.90;;
6300;SDS011;3183;51.010;6.898;2023-04-25T08:54:41;10.67;;;3.13;;
6300;SDS011;3183;51.010;6.898;2023-04-25T08:57:09;8.07;;;3.43;;
6300;SDS011;3183;51.010;6.898;2023-04-25T08:59:36;14.07;;;3.00;;
6300;SDS011;3183;51.010;6.898;2023-04-25T09:02:04;8.57;;;2.40;;
6300;SDS011;3183;51.010;6.898;2023-04-25T09:04:31;4.30;;;1.90;;
6300;SDS011;3183;51.010;6.898;2023-04-25T09:07:00;7.03;;;2.73;;
6300;SDS011;3183;51.010;6.898;2023-04-25T09:09:29;5.80;;;2.13;;
6300;SDS011;3183;51.010;6.898;2023-04-25T09:11:56;10.63;;;3.07;;
6300;SDS011;3183;51.010;6.898;2023-04-25T09:14:24;8.03;;;2.50;;
6300;SDS011;3183;51.010;6.898;2023-04-25T09:19:37;7.03;;;1.67;;
6300;SDS011;3183;51.010;6.898;2023-04-25T09:22:07;10.53;;;2.70;;
6300;SDS011;3183;51.010;6.898;2023-04-25T09:24:35;9.17;;;2.50;;
6300;SDS011;3183;51.010;6.898;2023-04-25T09:27:03;10.60;;;3.83;;
6300;SDS011;3183;51.010;6.898;2023-04-25T09:29:31;11.37;;;2.83;;
6300;SDS011;3183;51.010;6.898;2023-04-25T09:32:11;26.20;;;8.23;;
6300;SDS011;3183;51.010;6.898;2023-04-25T09:34:38;58.17;;;19.60;;
6300;SDS011;3183;51.010;6.898;2023-04-25T09:37:08;13.35;;;4.88;;
6300;SDS011;3183;51.010;6.898;2023-04-25T09:39:35;10.40;;;3.63;;
6300;SDS011;3183;51.010;6.898;2023-04-25T09:42:03;15.10;;;6.60;;
6300;SDS011;3183;51.010;6.898;2023-04-25T09:44:30;13.33;;;3.37;;
6300;SDS011;3183;51.010;6.898;2023-04-25T09:46:57;11.70;;;2.80;;
6300;SDS011;3183;51.010;6.898;2023-04-25T09:49:25;9.27;;;3.83;;
6300;SDS011;3183;51.010;6.898;2023-04-25T09:51:55;4.38;;;2.25;;
6300;SDS011;3183;51.010;6.898;2023-04-25T09:54:24;14.60;;;3.70;;
6300;SDS011;3183;51.010;6.898;2023-04-25T09:56:52;12.90;;;2.27;;
6300;SDS011;3183;51.010;6.898;2023-04-25T09:59:20;6.00;;;1.83;;
6300;SDS011;3183;51.010;6.898;2023-04-25T10:01:48;8.13;;;2.00;;
6300;SDS011;3183;51.010;6.898;2023-04-25T10:04:16;15.60;;;1.90;;
6300;SDS011;3183;51.010;6.898;2023-04-25T10:06:44;9.48;;;2.33;;
6300;SDS011;3183;51.010;6.898;2023-04-25T10:09:14;11.77;;;2.40;;
6300;SDS011;3183;51.010;6.898;2023-04-25T10:11:44;13.90;;;2.40;;
6300;SDS011;3183;51.010;6.898;2023-04-25T10:14:12;8.73;;;2.10;;
6300;SDS011;3183;51.010;6.898;2023-04-25T10:16:40;13.90;;;2.60;;
6300;SDS011;3183;51.010;6.898;2023-04-25T10:19:07;5.93;;;1.50;;
6300;SDS011;3183;51.010;6.898;2023-04-25T10:21:35;7.63;;;1.90;;
6300;SDS011;3183;51.010;6.898;2023-04-25T10:24:04;9.67;;;2.07;;
6300;SDS011;3183;51.010;6.898;2023-04-25T10:26:31;4.67;;;2.00;;
6300;SDS011;3183;51.010;6.898;2023-04-25T10:29:00;7.20;;;1.45;;
6300;SDS011;3183;51.010;6.898;2023-04-25T10:31:29;5.80;;;2.60;;
6300;SDS011;3183;51.010;6.898;2023-04-25T10:33:56;3.40;;;1.83;;
6300;SDS011;3183;51.010;6.898;2023-04-25T10:36:24;6.73;;;1.60;;
6300;SDS011;3183;51.010;6.898;2023-04-25T10:38:52;5.93;;;1.70;;
6300;SDS011;3183;51.010;6.898;2023-04-25T10:41:19;10.93;;;2.63;;
6300;SDS011;3183;51.010;6.898;2023-04-25T10:43:48;12.30;;;2.50;;
6300;SDS011;3183;51.010;6.898;2023-04-25T10:46:17;7.03;;;1.90;;
6300;SDS011;3183;51.010;6.898;2023-04-25T10:48:49;6.93;;;2.57;;
6300;SDS011;3183;51.010;6.898;2023-04-25T10:51:17;6.97;;;1.63;;
6300;SDS011;3183;51.010;6.898;2023-04-25T10:53:44;7.23;;;1.67;;
6300;SDS011;3183;51.010;6.898;2023-04-25T10:56:12;6.53;;;1.85;;
6300;SDS011;3183;51.010;6.898;2023-04-25T10:58:43;12.20;;;2.40;;
6300;SDS011;3183;51.010;6.898;2023-04-25T11:01:11;4.53;;;1.77;;
6300;SDS011;3183;51.010;6.898;2023-04-25T11:03:43;14.65;;;4.72;;
6300;SDS011;3183;51.010;6.898;2023-04-25T11:06:15;8.53;;;2.23;;
6300;SDS011;3183;51.010;6.898;2023-04-25T11:08:47;7.03;;;1.67;;
6300;SDS011;3183;51.010;6.898;2023-04-25T11:11:14;13.10;;;2.10;;
6300;SDS011;3183;51.010;6.898;2023-04-25T11:13:42;3.20;;;1.20;;
6300;SDS011;3183;51.010;6.898;2023-04-25T11:16:09;7.17;;;2.10;;
6300;SDS011;3183;51.010;6.898;2023-04-25T11:18:37;3.58;;;1.40;;
6300;SDS011;3183;51.010;6.898;2023-04-25T11:21:05;6.10;;;1.60;;
6300;SDS011;3183;51.010;6.898;2023-04-25T11:23:32;6.63;;;1.92;;
6300;SDS011;3183;51.010;6.898;2023-04-25T11:25:59;9.70;;;1.70;;
6300;SDS011;3183;51.010;6.898;2023-04-25T11:28:27;3.13;;;1.73;;
6300;SDS011;3183;51.010;6.898;2023-04-25T11:30:54;4.23;;;1.57;;
6300;SDS011;3183;51.010;6.898;2023-04-25T11:33:22;4.70;;;1.67;;
6300;SDS011;3183;51.010;6.898;2023-04-25T11:35:50;5.63;;;1.50;;
6300;SDS011;3183;51.010;6.898;2023-04-25T11:38:18;5.50;;;1.90;;
6300;SDS011;3183;51.010;6.898;2023-04-25T11:40:49;6.07;;;1.63;;
6300;SDS011;3183;51.010;6.898;2023-04-25T11:43:16;4.17;;;1.80;;
6300;SDS011;3183;51.010;6.898;2023-04-25T11:45:45;10.03;;;1.57;;
6300;SDS011;3183;51.010;6.898;2023-04-25T11:48:13;10.53;;;2.00;;
6300;SDS011;3183;51.010;6.898;2023-04-25T11:50:41;4.87;;;1.47;;
6300;SDS011;3183;51.010;6.898;2023-04-25T11:53:08;7.20;;;2.37;;
6300;SDS011;3183;51.010;6.898;2023-04-25T11:55:37;6.43;;;1.53;;
6300;SDS011;3183;51.010;6.898;2023-04-25T11:58:04;3.23;;;1.40;;
6300;SDS011;3183;51.010;6.898;2023-04-25T12:00:33;4.50;;;1.70;;
6300;SDS011;3183;51.010;6.898;2023-04-25T12:03:01;3.90;;;1.20;;
6300;SDS011;3183;51.010;6.898;2023-04-25T12:05:29;5.97;;;2.70;;
6300;SDS011;3183;51.010;6.898;2023-04-25T12:07:58;9.87;;;1.87;;
6300;SDS011;3183;51.010;6.898;2023-04-25T12:10:25;4.60;;;1.40;;
6300;SDS011;3183;51.010;6.898;2023-04-25T12:12:53;2.07;;;1.20;;
6300;SDS011;3183;51.010;6.898;2023-04-25T12:15:23;6.63;;;1.40;;
6300;SDS011;3183;51.010;6.898;2023-04-25T12:17:51;3.53;;;1.10;;
6300;SDS011;3183;51.010;6.898;2023-04-25T12:20:19;4.80;;;1.70;;
6300;SDS011;3183;51.010;6.898;2023-04-25T12:22:48;5.63;;;1.57;;
6300;SDS011;3183;51.010;6.898;2023-04-25T12:28:09;2.87;;;1.20;;
6300;SDS011;3183;51.010;6.898;2023-04-25T12:30:51;4.37;;;1.53;;
6300;SDS011;3183;51.010;6.898;2023-04-25T12:33:18;7.40;;;1.50;;
6300;SDS011;3183;51.010;6.898;2023-04-25T12:35:45;3.33;;;1.70;;
6300;SDS011;3183;51.010;6.898;2023-04-25T12:38:19;4.40;;;1.60;;
6300;SDS011;3183;51.010;6.898;2023-04-25T12:40:47;1.77;;;1.53;;
6300;SDS011;3183;51.010;6.898;2023-04-25T12:43:15;7.18;;;1.50;;
6300;SDS011;3183;51.010;6.898;2023-04-25T12:45:42;11.40;;;1.53;;
6300;SDS011;3183;51.010;6.898;2023-04-25T12:48:10;5.93;;;1.77;;
6300;SDS011;3183;51.010;6.898;2023-04-25T12:50:37;6.13;;;1.50;;
6300;SDS011;3183;51.010;6.898;2023-04-25T12:53:04;9.90;;;3.30;;
6300;SDS011;3183;51.010;6.898;2023-04-25T12:55:31;3.67;;;1.17;;
6300;SDS011;3183;51.010;6.898;2023-04-25T12:57:58;4.53;;;1.77;;
6300;SDS011;3183;51.010;6.898;2023-04-25T13:00:27;4.47;;;1.20;;
6300;SDS011;3183;51.010;6.898;2023-04-25T13:02:54;3.13;;;1.50;;
6300;SDS011;3183;51.010;6.898;2023-04-25T13:05:21;5.73;;;1.40;;
6300;SDS011;3183;51.010;6.898;2023-04-25T13:07:48;5.30;;;1.50;;
6300;SDS011;3183;51.010;6.898;2023-04-25T13:10:16;4.50;;;1.20;;
6300;SDS011;3183;51.010;6.898;2023-04-25T13:12:43;7.43;;;2.20;;
6300;SDS011;3183;51.010;6.898;2023-04-25T13:15:10;4.00;;;1.50;;
6300;SDS011;3183;51.010;6.898;2023-04-25T13:17:39;7.40;;;2.50;;
6300;SDS011;3183;51.010;6.898;2023-04-25T13:20:07;1.37;;;1.00;;
6300;SDS011;3183;51.010;6.898;2023-04-25T13:22:34;4.10;;;1.70;;
6300;SDS011;3183;51.010;6.898;2023-04-25T13:25:02;4.10;;;1.30;;
6300;SDS011;3183;51.010;6.898;2023-04-25T13:27:30;2.70;;;1.43;;
6300;SDS011;3183;51.010;6.898;2023-04-25T13:29:58;2.93;;;0.93;;
6300;SDS011;3183;51.010;6.898;2023-04-25T13:32:32;3.90;;;1.13;;
6300;SDS011;3183;51.010;6.898;2023-04-25T13:35:00;1.33;;;0.90;;
6300;SDS011;3183;51.010;6.898;2023-04-25T13:37:27;3.13;;;1.30;;
6300;SDS011;3183;51.010;6.898;2023-04-25T13:39:55;3.47;;;0.93;;
6300;SDS011;3183;51.010;6.898;2023-04-25T13:42:22;4.33;;;1.50;;
6300;SDS011;3183;51.010;6.898;2023-04-25T13:44:50;17.57;;;1.47;;
6300;SDS011;3183;51.010;6.898;2023-04-25T13:47:17;4.60;;;1.30;;
6300;SDS011;3183;51.010;6.898;2023-04-25T13:49:44;7.57;;;2.53;;
6300;SDS011;3183;51.010;6.898;2023-04-25T13:52:13;6.23;;;2.00;;
6300;SDS011;3183;51.010;6.898;2023-04-25T13:54:40;4.23;;;2.30;;
6300;SDS011;3183;51.010;6.898;2023-04-25T13:57:07;9.43;;;2.10;;
6300;SDS011;3183;51.010;6.898;2023-04-25T13:59:36;4.53;;;1.50;;
6300;SDS011;3183;51.010;6.898;2023-04-25T14:02:03;3.07;;;1.83;;
6300;SDS011;3183;51.010;6.898;2023-04-25T14:04:30;3.50;;;1.30;;
6300;SDS011;3183;51.010;6.898;2023-04-25T14:06:57;2.30;;;1.60;;
6300;SDS011;3183;51.010;6.898;2023-04-25T14:09:26;7.20;;;2.10;;
6300;SDS011;3183;51.010;6.898;2023-04-25T14:11:54;5.10;;;1.73;;
6300;SDS011;3183;51.010;6.898;2023-04-25T14:14:21;4.80;;;2.43;;
6300;SDS011;3183;51.010;6.898;2023-04-25T14:16:49;10.73;;;2.47;;
6300;SDS011;3183;51.010;6.898;2023-04-25T14:19:16;5.30;;;1.50;;
6300;SDS011;3183;51.010;6.898;2023-04-25T14:21:44;1.80;;;1.23;;
6300;SDS011;3183;51.010;6.898;2023-04-25T14:24:11;2.70;;;1.00;;
6300;SDS011;3183;51.010;6.898;2023-04-25T14:26:40;2.20;;;0.90;;
6300;SDS011;3183;51.010;6.898;2023-04-25T14:29:07;8.00;;;1.70;;
6300;SDS011;3183;51.010;6.898;2023-04-25T14:31:36;4.40;;;1.00;;
6300;SDS011;3183;51.010;6.898;2023-04-25T14:34:04;5.13;;;1.30;;
6300;SDS011;3183;51.010;6.898;2023-04-25T14:36:32;5.43;;;1.27;;
6300;SDS011;3183;51.010;6.898;2023-04-25T14:38:59;4.47;;;1.45;;
6300;SDS011;3183;51.010;6.898;2023-04-25T14:41:26;4.50;;;1.52;;
6300;SDS011;3183;51.010;6.898;2023-04-25T14:43:55;4.77;;;1.23;;
6300;SDS011;3183;51.010;6.898;2023-04-25T14:46:22;7.80;;;1.50;;
6300;SDS011;3183;51.010;6.898;2023-04-25T14:48:50;2.90;;;1.10;;
6300;SDS011;3183;51.010;6.898;2023-04-25T14:51:17;5.97;;;1.70;;
6300;SDS011;3183;51.010;6.898;2023-04-25T14:53:45;3.47;;;1.10;;
6300;SDS011;3183;51.010;6.898;2023-04-25T14:56:12;8.73;;;1.50;;
6300;SDS011;3183;51.010;6.898;2023-04-25T14:58:39;3.37;;;1.10;;
6300;SDS011;3183;51.010;6.898;2023-04-25T15:01:07;3.43;;;1.40;;
6300;SDS011;3183;51.010;6.898;2023-04-25T15:03:35;1.97;;;1.40;;
6300;SDS011;3183;51.010;6.898;2023-04-25T15:06:02;2.97;;;1.10;;
6300;SDS011;3183;51.010;6.898;2023-04-25T15:08:29;5.13;;;1.03;;
6300;SDS011;3183;51.010;6.898;2023-04-25T15:10:57;3.00;;;1.40;;
6300;SDS011;3183;51.010;6.898;2023-04-25T15:13:24;3.77;;;0.97;;
6300;SDS011;3183;51.010;6.898;2023-04-25T15:15:51;6.10;;;1.50;;